Aeroporto :
LOGIN :

Iscrizione | Disclaimer

   EN    FR    IT 

 










Sommario :    VFR   VFR Marginale   IFR   IFR Intensivo   IFR Molto Intensivo
Visibilità : 
Base nubi : 
>= 8 km
>= 3000ft
5 / 8 km
1000 / 3000 ft
1500m / 5 km
500 / 1000 ft
800 / 1500m
200 / 500 ft
< 800m
< 200 ft
Simboli :   Temporali  Nebbia  Neve Forte  Precipitazioni Forti  Vento > 20 kt
SIGMETs :   Varie  Temporali  Ghiacco  Turbolenza  Onda orograficha  Ceneri Vulcaniche






- Altitudine del aeroporto : 499 ft
- Codice IATA : TLS


LFBO - Toulouse / Blagnac

ULTIMO METAR :
  • 200730Z AUTO 00000KT 5000 BR NSC M00/M01 Q1011 NOSIG

METARs OBSOLETI :
  • 200700Z AUTO 00000KT 6000 NSC M01/M01 Q1011 TEMPO 0500 FG VV///
  • 200630Z AUTO 00000KT 7000 NSC M01/M01 Q1011 TEMPO 0500 FG VV///
  • 200600Z AUTO VRB02KT 7000 NSC M00/M01 Q1011 TEMPO 0500 FG VV///
  • 200530Z AUTO 00000KT 6000 NSC M00/M00 Q1011 TEMPO 0500 FG VV///
  • 200500Z AUTO 00000KT 5000 BR NSC M01/M01 Q1011 TEMPO 0300 FG VV///

TAF TAF LFBO
Valido dal 20 a 06 ore il 21 a 12 ore UTC


200500Z 2006/2112 VRB02KT 7000 NSC
PROB40
TEMPO 2006/2008 4000 BR
PROB30
TEMPO 2006/2008 0500 FG VV///
BECMG 2010/2012 14006KT CAVOK
BECMG 2022/2024 VRB02KT 4500 BR
TEMPO 2100/2108 0500 FG VV///
BECMG 2108/2110 CAVOK
ATIS : +33 5 62 74 66 36



MetMap, La meteo Aeronautica in un colpo d'occhio ! - Copyright ORBIFLY Dicembre 2007 - Disclaimer

ORBIFLY MET'MAP TEAM :

Programmazione e sviluppo : Alexandra Zaïnal
Concezione e sviluppo : Baudouin d'Aumeries
Co-Programmazione e sviluppo : Marc-Olivier Méhu
Supporto tecnico e logistico : Manuel Goepfert
Aiuto per la traduzione : Arnaldo La Scala

Contatto : metmap@orbifly.com




FONTI E CREDITI :

   NOAA